Flight Number: AVA1341 Duration: 2:00
Departure: Vienna Schwechat (LOWW) at 04:15 Distance: 779.341 Nm
Arrival: Manchester Airport (EGCC) at 06:15 Equipment: B737

Weather Information
Wien / Schwechat-Flughafen, Austria (LOWW) 48-07N 016-34E 190M Jul 27, 2021 - 06:20 PM EDT / 2021.07.27 2220 UTC
Wind: from the S (170 degrees) at 3 MPH (3 KT):0
Visibility: greater than 7 mile(s):0 Temperature: 73 F (23 C) Dew Point: 62 F (17 C) Relative Humidity: 68% Pressure (altimeter): 29.91 in. Hg (1013 hPa)
ob: LOWW 272220Z 17003KT CAVOK 23/17 Q1013 NOSIG cycle: 22
Sunrise: 03:28 Sunset: 18:32 (UTC)

Manchester Airport, United Kingdom (EGCC) 53-21N 002-17W 0M Jul 27, 2021 - 06:20 PM EDT / 2021.07.27 2220 UTC
Wind: Variable at 1 MPH (1 KT):0
Visibility: greater than 7 mile(s):0
Sky conditions: mostly cloudy Weather: Cumulonimbus clouds observed Temperature: 59 F (15 C) Dew Point: 57 F (14 C) Relative Humidity: 93% Pressure (altimeter): 29.71 in. Hg (1006 hPa)
ob: EGCC 272220Z AUTO VRB01KT 9999 BKN014/// //////CB 15/14 Q1006 cycle: 22
Sunrise: 04:23 Sunset: 20:07 (UTC)

TAF:2021/07/27 18:09 TAF EGCC 271657Z 2718/2824 VRB04KT 9999 SCT025 TEMPO 2718/2824 6000 SHRA PROB30 TEMPO 2718/2803 3000 +SHRAGS BKN008 BKN025CB PROB30 TEMPO 2803/2809 BKN008 PROB30 TEMPO 2809/2824 VRB15G25KT 3000 +SHRAGS BKN008 BKN025CB

This route has never been flown.

Route map